sensor_id;sensor_type;location;lat;lon;timestamp;temperature;humidity
3923;DHT22;1976;51.694;6.256;2022-10-16T00:01:29;13.50;99.90
3923;DHT22;1976;51.694;6.256;2022-10-16T00:03:57;13.50;99.90
3923;DHT22;1976;51.694;6.256;2022-10-16T00:06:23;13.50;99.90
3923;DHT22;1976;51.694;6.256;2022-10-16T00:08:49;13.60;99.90
3923;DHT22;1976;51.694;6.256;2022-10-16T00:11:26;13.60;99.90
3923;DHT22;1976;51.694;6.256;2022-10-16T00:13:56;13.60;99.90
3923;DHT22;1976;51.694;6.256;2022-10-16T00:16:22;13.60;99.90
3923;DHT22;1976;51.694;6.256;2022-10-16T00:18:48;13.60;99.90
3923;DHT22;1976;51.694;6.256;2022-10-16T00:21:16;13.60;99.90
3923;DHT22;1976;51.694;6.256;2022-10-16T00:23:43;13.60;99.90
3923;DHT22;1976;51.694;6.256;2022-10-16T00:26:11;13.50;99.90
3923;DHT22;1976;51.694;6.256;2022-10-16T00:28:37;13.60;99.90
3923;DHT22;1976;51.694;6.256;2022-10-16T00:31:12;13.60;99.90
3923;DHT22;1976;51.694;6.256;2022-10-16T00:33:39;13.60;99.90
3923;DHT22;1976;51.694;6.256;2022-10-16T00:36:07;13.60;99.90
3923;DHT22;1976;51.694;6.256;2022-10-16T00:38:32;13.60;99.90
3923;DHT22;1976;51.694;6.256;2022-10-16T00:40:58;13.70;99.90
3923;DHT22;1976;51.694;6.256;2022-10-16T00:46:00;13.70;99.90
3923;DHT22;1976;51.694;6.256;2022-10-16T00:48:26;13.70;99.90
3923;DHT22;1976;51.694;6.256;2022-10-16T00:50:52;13.60;99.90
3923;DHT22;1976;51.694;6.256;2022-10-16T00:53:18;13.60;99.90
3923;DHT22;1976;51.694;6.256;2022-10-16T00:55:44;13.60;99.90
3923;DHT22;1976;51.694;6.256;2022-10-16T00:58:11;13.60;99.90
3923;DHT22;1976;51.694;6.256;2022-10-16T01:03:29;13.60;99.90
3923;DHT22;1976;51.694;6.256;2022-10-16T01:06:21;13.50;99.90
3923;DHT22;1976;51.694;6.256;2022-10-16T01:09:10;13.50;99.90
3923;DHT22;1976;51.694;6.256;2022-10-16T01:11:49;13.50;99.90
3923;DHT22;1976;51.694;6.256;2022-10-16T01:14:45;13.50;99.90
3923;DHT22;1976;51.694;6.256;2022-10-16T01:17:25;13.50;99.90
3923;DHT22;1976;51.694;6.256;2022-10-16T01:25:25;13.40;99.90
3923;DHT22;1976;51.694;6.256;2022-10-16T01:27:57;13.40;99.90
3923;DHT22;1976;51.694;6.256;2022-10-16T01:30:32;13.30;99.90
3923;DHT22;1976;51.694;6.256;2022-10-16T01:33:10;13.30;99.90
3923;DHT22;1976;51.694;6.256;2022-10-16T01:35:40;13.30;99.90
3923;DHT22;1976;51.694;6.256;2022-10-16T01:38:14;13.30;99.90
3923;DHT22;1976;51.694;6.256;2022-10-16T01:40:46;13.30;99.90
3923;DHT22;1976;51.694;6.256;2022-10-16T01:43:29;13.20;99.90
3923;DHT22;1976;51.694;6.256;2022-10-16T01:45:57;13.20;99.90
3923;DHT22;1976;51.694;6.256;2022-10-16T01:48:24;13.30;99.90
3923;DHT22;1976;51.694;6.256;2022-10-16T01:51:11;13.20;99.90
3923;DHT22;1976;51.694;6.256;2022-10-16T01:53:39;13.20;99.90
3923;DHT22;1976;51.694;6.256;2022-10-16T01:56:08;13.20;99.90
3923;DHT22;1976;51.694;6.256;2022-10-16T01:58:38;13.20;99.90
3923;DHT22;1976;51.694;6.256;2022-10-16T02:01:07;13.20;99.90
3923;DHT22;1976;51.694;6.256;2022-10-16T02:03:36;13.20;99.90
3923;DHT22;1976;51.694;6.256;2022-10-16T02:06:03;13.30;99.90
3923;DHT22;1976;51.694;6.256;2022-10-16T02:08:30;13.30;99.90
3923;DHT22;1976;51.694;6.256;2022-10-16T02:10:57;13.40;99.90
3923;DHT22;1976;51.694;6.256;2022-10-16T02:13:46;13.40;99.90
3923;DHT22;1976;51.694;6.256;2022-10-16T02:16:14;13.40;99.90
3923;DHT22;1976;51.694;6.256;2022-10-16T02:18:41;13.30;99.90
3923;DHT22;1976;51.694;6.256;2022-10-16T02:26:15;13.40;99.90
3923;DHT22;1976;51.694;6.256;2022-10-16T02:28:46;13.40;99.90
3923;DHT22;1976;51.694;6.256;2022-10-16T02:31:18;13.40;99.90
3923;DHT22;1976;51.694;6.256;2022-10-16T02:33:46;13.40;99.90
3923;DHT22;1976;51.694;6.256;2022-10-16T02:36:12;13.40;99.90
3923;DHT22;1976;51.694;6.256;2022-10-16T02:38:39;13.40;99.90
3923;DHT22;1976;51.694;6.256;2022-10-16T02:41:05;13.40;99.90
3923;DHT22;1976;51.694;6.256;2022-10-16T02:43:31;13.40;99.90
3923;DHT22;1976;51.694;6.256;2022-10-16T02:45:58;13.40;99.90
3923;DHT22;1976;51.694;6.256;2022-10-16T02:48:24;13.40;99.90
3923;DHT22;1976;51.694;6.256;2022-10-16T02:50:50;13.50;99.90
3923;DHT22;1976;51.694;6.256;2022-10-16T02:53:16;13.50;99.90
3923;DHT22;1976;51.694;6.256;2022-10-16T02:55:42;13.40;99.90
3923;DHT22;1976;51.694;6.256;2022-10-16T02:58:08;13.40;99.90
3923;DHT22;1976;51.694;6.256;2022-10-16T03:00:33;13.30;99.90
3923;DHT22;1976;51.694;6.256;2022-10-16T03:02:59;13.30;99.90
3923;DHT22;1976;51.694;6.256;2022-10-16T03:05:25;13.30;99.90
3923;DHT22;1976;51.694;6.256;2022-10-16T03:07:50;13.30;99.90
3923;DHT22;1976;51.694;6.256;2022-10-16T03:10:17;13.40;99.90
3923;DHT22;1976;51.694;6.256;2022-10-16T03:12:43;13.30;99.90
3923;DHT22;1976;51.694;6.256;2022-10-16T03:15:09;13.40;99.90
3923;DHT22;1976;51.694;6.256;2022-10-16T03:17:35;13.30;99.90
3923;DHT22;1976;51.694;6.256;2022-10-16T03:20:00;13.40;99.90
3923;DHT22;1976;51.694;6.256;2022-10-16T03:22:26;13.40;99.90
3923;DHT22;1976;51.694;6.256;2022-10-16T03:24:52;13.40;99.90
3923;DHT22;1976;51.694;6.256;2022-10-16T03:29:44;13.30;99.90
3923;DHT22;1976;51.694;6.256;2022-10-16T03:32:09;13.30;99.90
3923;DHT22;1976;51.694;6.256;2022-10-16T03:34:35;13.20;99.90
3923;DHT22;1976;51.694;6.256;2022-10-16T03:37:00;13.30;99.90
3923;DHT22;1976;51.694;6.256;2022-10-16T03:39:26;13.20;99.90
3923;DHT22;1976;51.694;6.256;2022-10-16T03:41:52;13.20;99.90
3923;DHT22;1976;51.694;6.256;2022-10-16T03:44:18;13.20;99.90
3923;DHT22;1976;51.694;6.256;2022-10-16T03:46:43;13.30;99.90
3923;DHT22;1976;51.694;6.256;2022-10-16T03:49:09;13.20;99.90
3923;DHT22;1976;51.694;6.256;2022-10-16T03:51:35;13.20;99.90
3923;DHT22;1976;51.694;6.256;2022-10-16T03:54:00;13.20;99.90
3923;DHT22;1976;51.694;6.256;2022-10-16T03:56:26;13.20;99.90
3923;DHT22;1976;51.694;6.256;2022-10-16T03:58:52;13.20;99.90
3923;DHT22;1976;51.694;6.256;2022-10-16T04:01:17;13.30;99.90
3923;DHT22;1976;51.694;6.256;2022-10-16T04:03:43;13.20;99.90
3923;DHT22;1976;51.694;6.256;2022-10-16T04:06:08;13.20;99.90
3923;DHT22;1976;51.694;6.256;2022-10-16T04:08:34;13.30;99.90
3923;DHT22;1976;51.694;6.256;2022-10-16T04:11:02;13.30;99.90
3923;DHT22;1976;51.694;6.256;2022-10-16T04:13:28;13.30;99.90
3923;DHT22;1976;51.694;6.256;2022-10-16T04:15:54;13.40;99.90
3923;DHT22;1976;51.694;6.256;2022-10-16T04:18:19;13.40;99.90
3923;DHT22;1976;51.694;6.256;2022-10-16T04:20:45;13.30;99.90
3923;DHT22;1976;51.694;6.256;2022-10-16T04:23:11;13.40;99.90
3923;DHT22;1976;51.694;6.256;2022-10-16T04:25:36;13.40;99.90
3923;DHT22;1976;51.694;6.256;2022-10-16T04:28:03;13.40;99.90
3923;DHT22;1976;51.694;6.256;2022-10-16T04:30:28;13.40;99.90
3923;DHT22;1976;51.694;6.256;2022-10-16T04:32:54;13.40;99.90
3923;DHT22;1976;51.694;6.256;2022-10-16T04:35:20;13.40;99.90
3923;DHT22;1976;51.694;6.256;2022-10-16T04:37:46;13.40;99.90
3923;DHT22;1976;51.694;6.256;2022-10-16T04:40:12;13.40;99.90
3923;DHT22;1976;51.694;6.256;2022-10-16T04:42:38;13.40;99.90
3923;DHT22;1976;51.694;6.256;2022-10-16T04:45:05;13.40;99.90
3923;DHT22;1976;51.694;6.256;2022-10-16T04:47:31;13.40;99.90
3923;DHT22;1976;51.694;6.256;2022-10-16T04:49:57;13.40;99.90
3923;DHT22;1976;51.694;6.256;2022-10-16T04:52:23;13.40;99.90
3923;DHT22;1976;51.694;6.256;2022-10-16T04:54:50;13.40;99.90
3923;DHT22;1976;51.694;6.256;2022-10-16T04:57:16;13.40;99.90
3923;DHT22;1976;51.694;6.256;2022-10-16T04:59:42;13.40;99.90
3923;DHT22;1976;51.694;6.256;2022-10-16T05:02:08;13.40;99.90
3923;DHT22;1976;51.694;6.256;2022-10-16T05:04:34;13.40;99.90
3923;DHT22;1976;51.694;6.256;2022-10-16T05:06:59;13.40;99.90
3923;DHT22;1976;51.694;6.256;2022-10-16T05:09:25;13.40;99.90
3923;DHT22;1976;51.694;6.256;2022-10-16T05:11:51;13.30;99.90
3923;DHT22;1976;51.694;6.256;2022-10-16T05:14:16;13.30;99.90
3923;DHT22;1976;51.694;6.256;2022-10-16T05:16:42;13.30;99.90
3923;DHT22;1976;51.694;6.256;2022-10-16T05:19:08;13.30;99.90
3923;DHT22;1976;51.694;6.256;2022-10-16T05:21:33;13.30;99.90
3923;DHT22;1976;51.694;6.256;2022-10-16T05:23:59;13.20;99.90
3923;DHT22;1976;51.694;6.256;2022-10-16T05:26:24;13.30;99.90
3923;DHT22;1976;51.694;6.256;2022-10-16T05:28:50;13.20;99.90
3923;DHT22;1976;51.694;6.256;2022-10-16T05:31:16;13.20;99.90
3923;DHT22;1976;51.694;6.256;2022-10-16T05:33:42;13.20;99.90
3923;DHT22;1976;51.694;6.256;2022-10-16T05:36:09;13.20;99.90
3923;DHT22;1976;51.694;6.256;2022-10-16T05:38:36;13.20;99.90
3923;DHT22;1976;51.694;6.256;2022-10-16T05:41:03;13.20;99.90
3923;DHT22;1976;51.694;6.256;2022-10-16T05:43:30;13.20;99.90
3923;DHT22;1976;51.694;6.256;2022-10-16T05:45:59;13.30;99.90
3923;DHT22;1976;51.694;6.256;2022-10-16T05:48:25;13.20;99.90
3923;DHT22;1976;51.694;6.256;2022-10-16T05:51:05;13.20;99.90
3923;DHT22;1976;51.694;6.256;2022-10-16T05:53:33;13.20;99.90
3923;DHT22;1976;51.694;6.256;2022-10-16T05:56:00;13.20;99.90
3923;DHT22;1976;51.694;6.256;2022-10-16T06:00:58;13.10;99.90
3923;DHT22;1976;51.694;6.256;2022-10-16T06:03:25;13.10;99.90
3923;DHT22;1976;51.694;6.256;2022-10-16T06:05:51;13.10;99.90
3923;DHT22;1976;51.694;6.256;2022-10-16T06:08:17;13.10;99.90
3923;DHT22;1976;51.694;6.256;2022-10-16T06:10:44;13.00;99.90
3923;DHT22;1976;51.694;6.256;2022-10-16T06:13:10;13.10;99.90
3923;DHT22;1976;51.694;6.256;2022-10-16T06:15:37;13.10;99.90
3923;DHT22;1976;51.694;6.256;2022-10-16T06:18:04;13.10;99.90
3923;DHT22;1976;51.694;6.256;2022-10-16T06:20:30;13.00;99.90
3923;DHT22;1976;51.694;6.256;2022-10-16T06:22:56;13.10;99.90
3923;DHT22;1976;51.694;6.256;2022-10-16T06:25:22;13.00;99.90
3923;DHT22;1976;51.694;6.256;2022-10-16T06:27:48;13.10;99.90
3923;DHT22;1976;51.694;6.256;2022-10-16T06:30:13;13.10;99.90
3923;DHT22;1976;51.694;6.256;2022-10-16T06:32:39;13.10;99.90
3923;DHT22;1976;51.694;6.256;2022-10-16T06:35:05;13.10;99.90
3923;DHT22;1976;51.694;6.256;2022-10-16T06:37:31;13.10;99.90
3923;DHT22;1976;51.694;6.256;2022-10-16T06:39:56;13.10;99.90
3923;DHT22;1976;51.694;6.256;2022-10-16T06:42:22;13.10;99.90
3923;DHT22;1976;51.694;6.256;2022-10-16T06:44:47;13.10;99.90
3923;DHT22;1976;51.694;6.256;2022-10-16T06:47:13;13.10;99.90
3923;DHT22;1976;51.694;6.256;2022-10-16T06:49:39;13.10;99.90
3923;DHT22;1976;51.694;6.256;2022-10-16T06:52:04;13.10;99.90
3923;DHT22;1976;51.694;6.256;2022-10-16T06:54:30;13.10;99.90
3923;DHT22;1976;51.694;6.256;2022-10-16T06:56:56;13.10;99.90
3923;DHT22;1976;51.694;6.256;2022-10-16T06:59:22;13.00;99.90
3923;DHT22;1976;51.694;6.256;2022-10-16T07:01:47;13.10;99.90
3923;DHT22;1976;51.694;6.256;2022-10-16T07:04:13;13.10;99.90
3923;DHT22;1976;51.694;6.256;2022-10-16T07:06:39;13.20;99.90
3923;DHT22;1976;51.694;6.256;2022-10-16T07:09:07;13.20;99.90
3923;DHT22;1976;51.694;6.256;2022-10-16T07:11:33;13.20;99.90
3923;DHT22;1976;51.694;6.256;2022-10-16T07:13:58;13.30;99.90
3923;DHT22;1976;51.694;6.256;2022-10-16T07:16:26;13.40;99.90
3923;DHT22;1976;51.694;6.256;2022-10-16T07:18:54;13.40;99.90
3923;DHT22;1976;51.694;6.256;2022-10-16T07:21:24;13.50;99.90
3923;DHT22;1976;51.694;6.256;2022-10-16T07:23:55;13.50;99.90
3923;DHT22;1976;51.694;6.256;2022-10-16T07:26:22;13.60;99.90
3923;DHT22;1976;51.694;6.256;2022-10-16T07:28:49;13.70;99.90
3923;DHT22;1976;51.694;6.256;2022-10-16T07:31:15;13.80;99.90
3923;DHT22;1976;51.694;6.256;2022-10-16T07:33:42;13.80;99.90
3923;DHT22;1976;51.694;6.256;2022-10-16T07:36:13;14.00;99.90
3923;DHT22;1976;51.694;6.256;2022-10-16T07:38:39;14.20;99.90
3923;DHT22;1976;51.694;6.256;2022-10-16T07:41:07;14.20;99.90
3923;DHT22;1976;51.694;6.256;2022-10-16T07:43:34;14.30;99.90
3923;DHT22;1976;51.694;6.256;2022-10-16T07:46:00;14.40;99.90
3923;DHT22;1976;51.694;6.256;2022-10-16T07:48:31;14.70;99.90
3923;DHT22;1976;51.694;6.256;2022-10-16T07:51:02;14.70;99.90
3923;DHT22;1976;51.694;6.256;2022-10-16T07:53:28;14.80;99.90
3923;DHT22;1976;51.694;6.256;2022-10-16T07:56:02;15.20;99.90
3923;DHT22;1976;51.694;6.256;2022-10-16T07:58:28;15.20;99.90
3923;DHT22;1976;51.694;6.256;2022-10-16T08:00:55;15.40;99.90
3923;DHT22;1976;51.694;6.256;2022-10-16T08:03:21;15.70;99.90
3923;DHT22;1976;51.694;6.256;2022-10-16T08:05:46;15.70;99.90
3923;DHT22;1976;51.694;6.256;2022-10-16T08:08:14;16.00;99.90
3923;DHT22;1976;51.694;6.256;2022-10-16T08:10:40;16.30;99.90
3923;DHT22;1976;51.694;6.256;2022-10-16T08:13:05;16.80;99.90
3923;DHT22;1976;51.694;6.256;2022-10-16T08:15:31;17.00;99.90
3923;DHT22;1976;51.694;6.256;2022-10-16T08:18:02;17.00;99.90
3923;DHT22;1976;51.694;6.256;2022-10-16T08:20:29;17.50;99.90
3923;DHT22;1976;51.694;6.256;2022-10-16T08:22:55;17.50;99.90
3923;DHT22;1976;51.694;6.256;2022-10-16T08:25:22;17.80;99.90
3923;DHT22;1976;51.694;6.256;2022-10-16T08:27:49;17.90;99.90
3923;DHT22;1976;51.694;6.256;2022-10-16T08:30:16;18.30;99.90
3923;DHT22;1976;51.694;6.256;2022-10-16T08:32:42;18.40;99.90
3923;DHT22;1976;51.694;6.256;2022-10-16T08:35:11;18.50;99.90
3923;DHT22;1976;51.694;6.256;2022-10-16T08:37:38;19.40;99.90
3923;DHT22;1976;51.694;6.256;2022-10-16T08:40:06;19.90;99.90
3923;DHT22;1976;51.694;6.256;2022-10-16T08:42:52;19.70;99.90
3923;DHT22;1976;51.694;6.256;2022-10-16T08:50:28;20.10;99.90
3923;DHT22;1976;51.694;6.256;2022-10-16T08:52:55;20.30;99.90
3923;DHT22;1976;51.694;6.256;2022-10-16T08:55:46;20.70;99.90
3923;DHT22;1976;51.694;6.256;2022-10-16T08:58:28;20.80;99.90
3923;DHT22;1976;51.694;6.256;2022-10-16T09:00:56;20.90;99.90
3923;DHT22;1976;51.694;6.256;2022-10-16T09:12:00;21.00;99.90
3923;DHT22;1976;51.694;6.256;2022-10-16T09:19:46;22.80;99.90
3923;DHT22;1976;51.694;6.256;2022-10-16T09:22:26;23.20;99.90
3923;DHT22;1976;51.694;6.256;2022-10-16T09:24:52;23.90;98.10
3923;DHT22;1976;51.694;6.256;2022-10-16T09:27:19;24.50;97.00
3923;DHT22;1976;51.694;6.256;2022-10-16T09:29:44;24.30;96.70
3923;DHT22;1976;51.694;6.256;2022-10-16T09:32:13;24.30;97.00
3923;DHT22;1976;51.694;6.256;2022-10-16T09:34:54;24.20;97.00
3923;DHT22;1976;51.694;6.256;2022-10-16T09:37:23;24.30;97.00
3923;DHT22;1976;51.694;6.256;2022-10-16T09:39:53;24.50;96.40
3923;DHT22;1976;51.694;6.256;2022-10-16T09:42:37;24.10;96.50
3923;DHT22;1976;51.694;6.256;2022-10-16T09:45:03;24.30;96.80
3923;DHT22;1976;51.694;6.256;2022-10-16T09:47:30;24.30;96.80
3923;DHT22;1976;51.694;6.256;2022-10-16T09:50:00;24.90;95.50
3923;DHT22;1976;51.694;6.256;2022-10-16T09:52:28;24.90;95.50
3923;DHT22;1976;51.694;6.256;2022-10-16T09:54:57;26.20;95.00
3923;DHT22;1976;51.694;6.256;2022-10-16T09:57:24;27.10;93.90
3923;DHT22;1976;51.694;6.256;2022-10-16T09:59:54;27.60;93.20
3923;DHT22;1976;51.694;6.256;2022-10-16T10:02:30;28.10;91.50
3923;DHT22;1976;51.694;6.256;2022-10-16T10:04:56;27.80;90.30
3923;DHT22;1976;51.694;6.256;2022-10-16T10:07:39;27.10;91.40
3923;DHT22;1976;51.694;6.256;2022-10-16T10:10:22;26.70;91.80
3923;DHT22;1976;51.694;6.256;2022-10-16T10:12:48;26.50;92.20
3923;DHT22;1976;51.694;6.256;2022-10-16T10:15:15;26.70;91.60
3923;DHT22;1976;51.694;6.256;2022-10-16T10:17:55;27.20;91.10
3923;DHT22;1976;51.694;6.256;2022-10-16T10:20:28;28.00;88.60
3923;DHT22;1976;51.694;6.256;2022-10-16T10:22:55;27.30;88.40
3923;DHT22;1976;51.694;6.256;2022-10-16T10:25:32;27.20;88.10
3923;DHT22;1976;51.694;6.256;2022-10-16T10:28:17;27.00;89.60
3923;DHT22;1976;51.694;6.256;2022-10-16T10:38:51;26.10;91.10
3923;DHT22;1976;51.694;6.256;2022-10-16T10:46:42;27.10;87.80
3923;DHT22;1976;51.694;6.256;2022-10-16T10:49:20;26.10;88.90
3923;DHT22;1976;51.694;6.256;2022-10-16T11:05:40;28.80;81.60
3923;DHT22;1976;51.694;6.256;2022-10-16T11:08:20;29.10;79.80
3923;DHT22;1976;51.694;6.256;2022-10-16T11:10:54;29.50;79.20
3923;DHT22;1976;51.694;6.256;2022-10-16T11:13:36;29.60;78.90
3923;DHT22;1976;51.694;6.256;2022-10-16T11:16:22;28.10;77.60
3923;DHT22;1976;51.694;6.256;2022-10-16T11:18:59;27.90;79.60
3923;DHT22;1976;51.694;6.256;2022-10-16T11:21:30;27.50;81.60
3923;DHT22;1976;51.694;6.256;2022-10-16T11:24:35;27.70;83.00
3923;DHT22;1976;51.694;6.256;2022-10-16T11:27:04;28.40;80.10
3923;DHT22;1976;51.694;6.256;2022-10-16T11:29:35;27.30;82.40
3923;DHT22;1976;51.694;6.256;2022-10-16T11:32:10;25.90;84.70
3923;DHT22;1976;51.694;6.256;2022-10-16T11:34:49;26.00;85.50
3923;DHT22;1976;51.694;6.256;2022-10-16T11:37:21;26.10;86.10
3923;DHT22;1976;51.694;6.256;2022-10-16T11:39:52;27.90;80.60
3923;DHT22;1976;51.694;6.256;2022-10-16T11:42:41;28.50;79.90
3923;DHT22;1976;51.694;6.256;2022-10-16T11:45:27;29.00;77.60
3923;DHT22;1976;51.694;6.256;2022-10-16T11:53:13;28.00;77.50
3923;DHT22;1976;51.694;6.256;2022-10-16T11:55:43;26.60;79.70
3923;DHT22;1976;51.694;6.256;2022-10-16T12:37:22;33.60;60.60
3923;DHT22;1976;51.694;6.256;2022-10-16T12:39:49;31.60;62.60
3923;DHT22;1976;51.694;6.256;2022-10-16T12:44:52;28.80;68.50
3923;DHT22;1976;51.694;6.256;2022-10-16T12:47:46;28.20;70.10
3923;DHT22;1976;51.694;6.256;2022-10-16T12:50:35;28.60;70.30
3923;DHT22;1976;51.694;6.256;2022-10-16T12:53:03;28.30;70.80
3923;DHT22;1976;51.694;6.256;2022-10-16T12:55:45;27.40;72.60
3923;DHT22;1976;51.694;6.256;2022-10-16T13:01:41;26.00;78.50
3923;DHT22;1976;51.694;6.256;2022-10-16T13:04:14;26.00;79.10
3923;DHT22;1976;51.694;6.256;2022-10-16T13:07:32;29.50;72.90
3923;DHT22;1976;51.694;6.256;2022-10-16T13:13:29;31.50;68.30
3923;DHT22;1976;51.694;6.256;2022-10-16T13:16:05;32.10;65.30
3923;DHT22;1976;51.694;6.256;2022-10-16T13:18:46;31.00;66.20
3923;DHT22;1976;51.694;6.256;2022-10-16T13:21:20;30.50;69.00
3923;DHT22;1976;51.694;6.256;2022-10-16T13:24:36;31.30;66.90
3923;DHT22;1976;51.694;6.256;2022-10-16T13:29:38;32.60;62.80
3923;DHT22;1976;51.694;6.256;2022-10-16T13:32:11;32.20;63.00
3923;DHT22;1976;51.694;6.256;2022-10-16T13:34:46;31.70;63.40
3923;DHT22;1976;51.694;6.256;2022-10-16T13:37:21;31.40;64.40
3923;DHT22;1976;51.694;6.256;2022-10-16T13:39:46;31.20;64.10
3923;DHT22;1976;51.694;6.256;2022-10-16T13:44:52;30.60;64.50
3923;DHT22;1976;51.694;6.256;2022-10-16T13:47:24;29.90;65.90
3923;DHT22;1976;51.694;6.256;2022-10-16T13:50:11;29.00;66.60
3923;DHT22;1976;51.694;6.256;2022-10-16T13:52:37;28.40;69.60
3923;DHT22;1976;51.694;6.256;2022-10-16T13:55:17;28.30;69.20
3923;DHT22;1976;51.694;6.256;2022-10-16T13:57:44;28.10;70.30
3923;DHT22;1976;51.694;6.256;2022-10-16T14:00:25;28.60;70.20
3923;DHT22;1976;51.694;6.256;2022-10-16T14:03:04;29.00;69.80
3923;DHT22;1976;51.694;6.256;2022-10-16T14:05:31;28.70;68.80
3923;DHT22;1976;51.694;6.256;2022-10-16T14:07:57;27.90;70.00
3923;DHT22;1976;51.694;6.256;2022-10-16T14:10:30;27.40;72.30
3923;DHT22;1976;51.694;6.256;2022-10-16T14:13:01;26.70;73.50
3923;DHT22;1976;51.694;6.256;2022-10-16T14:15:30;26.30;76.10
3923;DHT22;1976;51.694;6.256;2022-10-16T14:17:57;25.90;77.40
3923;DHT22;1976;51.694;6.256;2022-10-16T14:20:27;25.60;78.70
3923;DHT22;1976;51.694;6.256;2022-10-16T14:23:04;25.40;80.40
3923;DHT22;1976;51.694;6.256;2022-10-16T14:25:42;25.30;81.30
3923;DHT22;1976;51.694;6.256;2022-10-16T14:28:23;25.20;82.10
3923;DHT22;1976;51.694;6.256;2022-10-16T14:30:59;25.10;82.00
3923;DHT22;1976;51.694;6.256;2022-10-16T14:36:04;24.80;83.00
3923;DHT22;1976;51.694;6.256;2022-10-16T14:38:31;24.70;83.90
3923;DHT22;1976;51.694;6.256;2022-10-16T14:40:59;24.60;84.80
3923;DHT22;1976;51.694;6.256;2022-10-16T14:43:33;24.10;84.60
3923;DHT22;1976;51.694;6.256;2022-10-16T14:46:02;23.50;84.80
3923;DHT22;1976;51.694;6.256;2022-10-16T14:48:28;23.00;87.30
3923;DHT22;1976;51.694;6.256;2022-10-16T14:50:54;22.70;89.90
3923;DHT22;1976;51.694;6.256;2022-10-16T14:53:20;22.40;90.80
3923;DHT22;1976;51.694;6.256;2022-10-16T14:55:46;22.20;91.80
3923;DHT22;1976;51.694;6.256;2022-10-16T14:58:15;22.10;92.60
3923;DHT22;1976;51.694;6.256;2022-10-16T15:00:41;22.00;92.90
3923;DHT22;1976;51.694;6.256;2022-10-16T15:03:07;21.80;93.70
3923;DHT22;1976;51.694;6.256;2022-10-16T15:05:33;21.70;94.20
3923;DHT22;1976;51.694;6.256;2022-10-16T15:07:58;21.80;95.30
3923;DHT22;1976;51.694;6.256;2022-10-16T15:10:26;21.80;95.70
3923;DHT22;1976;51.694;6.256;2022-10-16T15:12:53;21.80;95.90
3923;DHT22;1976;51.694;6.256;2022-10-16T15:15:42;21.80;96.00
3923;DHT22;1976;51.694;6.256;2022-10-16T15:18:08;21.90;96.00
3923;DHT22;1976;51.694;6.256;2022-10-16T15:20:35;22.10;95.80
3923;DHT22;1976;51.694;6.256;2022-10-16T15:23:09;22.20;95.80
3923;DHT22;1976;51.694;6.256;2022-10-16T15:25:42;22.20;95.70
3923;DHT22;1976;51.694;6.256;2022-10-16T15:28:09;22.20;96.10
3923;DHT22;1976;51.694;6.256;2022-10-16T15:30:36;22.30;95.70
3923;DHT22;1976;51.694;6.256;2022-10-16T15:33:03;22.20;95.40
3923;DHT22;1976;51.694;6.256;2022-10-16T15:35:29;22.20;95.40
3923;DHT22;1976;51.694;6.256;2022-10-16T15:37:55;22.10;95.80
3923;DHT22;1976;51.694;6.256;2022-10-16T15:40:22;22.10;95.60
3923;DHT22;1976;51.694;6.256;2022-10-16T15:42:48;22.10;96.40
3923;DHT22;1976;51.694;6.256;2022-10-16T15:45:15;21.90;96.90
3923;DHT22;1976;51.694;6.256;2022-10-16T15:47:41;21.80;97.20
3923;DHT22;1976;51.694;6.256;2022-10-16T15:50:10;21.80;97.30
3923;DHT22;1976;51.694;6.256;2022-10-16T15:52:36;21.80;97.30
3923;DHT22;1976;51.694;6.256;2022-10-16T15:55:04;21.80;97.10
3923;DHT22;1976;51.694;6.256;2022-10-16T15:57:29;21.80;97.10
3923;DHT22;1976;51.694;6.256;2022-10-16T15:59:55;21.70;97.20
3923;DHT22;1976;51.694;6.256;2022-10-16T16:02:21;21.70;97.30
3923;DHT22;1976;51.694;6.256;2022-10-16T16:04:46;21.70;97.20
3923;DHT22;1976;51.694;6.256;2022-10-16T16:07:12;21.70;97.30
3923;DHT22;1976;51.694;6.256;2022-10-16T16:09:37;21.60;97.20
3923;DHT22;1976;51.694;6.256;2022-10-16T16:12:03;21.60;97.40
3923;DHT22;1976;51.694;6.256;2022-10-16T16:14:29;23.40;98.50
3923;DHT22;1976;51.694;6.256;2022-10-16T16:16:55;21.50;97.50
3923;DHT22;1976;51.694;6.256;2022-10-16T16:19:21;21.50;97.70
3923;DHT22;1976;51.694;6.256;2022-10-16T16:21:48;21.40;98.00
3923;DHT22;1976;51.694;6.256;2022-10-16T16:24:14;21.30;98.20
3923;DHT22;1976;51.694;6.256;2022-10-16T16:26:40;21.20;98.40
3923;DHT22;1976;51.694;6.256;2022-10-16T16:29:12;21.20;98.60
3923;DHT22;1976;51.694;6.256;2022-10-16T16:31:39;21.10;98.60
3923;DHT22;1976;51.694;6.256;2022-10-16T16:34:05;21.00;98.90
3923;DHT22;1976;51.694;6.256;2022-10-16T16:36:31;20.90;99.60
3923;DHT22;1976;51.694;6.256;2022-10-16T16:38:57;20.80;99.90
3923;DHT22;1976;51.694;6.256;2022-10-16T16:41:27;20.60;99.90
3923;DHT22;1976;51.694;6.256;2022-10-16T16:43:54;20.40;99.90
3923;DHT22;1976;51.694;6.256;2022-10-16T16:46:20;20.20;99.90
3923;DHT22;1976;51.694;6.256;2022-10-16T16:48:47;19.90;99.90
3923;DHT22;1976;51.694;6.256;2022-10-16T16:51:16;19.70;99.90
3923;DHT22;1976;51.694;6.256;2022-10-16T16:53:44;19.70;99.90
3923;DHT22;1976;51.694;6.256;2022-10-16T16:56:10;19.60;99.90
3923;DHT22;1976;51.694;6.256;2022-10-16T16:58:36;19.50;99.90
3923;DHT22;1976;51.694;6.256;2022-10-16T17:01:02;19.50;99.90
3923;DHT22;1976;51.694;6.256;2022-10-16T17:03:29;19.50;99.90
3923;DHT22;1976;51.694;6.256;2022-10-16T17:06:03;19.50;99.90
3923;DHT22;1976;51.694;6.256;2022-10-16T17:08:29;19.40;99.90
3923;DHT22;1976;51.694;6.256;2022-10-16T17:10:55;19.40;99.90
3923;DHT22;1976;51.694;6.256;2022-10-16T17:13:23;19.40;99.90
3923;DHT22;1976;51.694;6.256;2022-10-16T17:15:50;19.40;99.90
3923;DHT22;1976;51.694;6.256;2022-10-16T17:18:16;19.40;99.90
3923;DHT22;1976;51.694;6.256;2022-10-16T17:20:43;19.40;99.90
3923;DHT22;1976;51.694;6.256;2022-10-16T17:23:10;19.30;99.90
3923;DHT22;1976;51.694;6.256;2022-10-16T17:25:37;19.10;99.90
3923;DHT22;1976;51.694;6.256;2022-10-16T17:28:03;19.00;99.90
3923;DHT22;1976;51.694;6.256;2022-10-16T17:30:29;19.00;99.90
3923;DHT22;1976;51.694;6.256;2022-10-16T17:32:54;18.90;99.90
3923;DHT22;1976;51.694;6.256;2022-10-16T17:35:20;18.80;99.90
3923;DHT22;1976;51.694;6.256;2022-10-16T17:37:45;18.80;99.90
3923;DHT22;1976;51.694;6.256;2022-10-16T17:40:11;18.60;99.90
3923;DHT22;1976;51.694;6.256;2022-10-16T17:42:37;18.50;99.90
3923;DHT22;1976;51.694;6.256;2022-10-16T17:45:03;18.50;99.90
3923;DHT22;1976;51.694;6.256;2022-10-16T17:47:28;18.40;99.90
3923;DHT22;1976;51.694;6.256;2022-10-16T17:49:54;18.40;99.90
3923;DHT22;1976;51.694;6.256;2022-10-16T17:52:21;18.30;99.90
3923;DHT22;1976;51.694;6.256;2022-10-16T17:54:49;18.30;99.90
3923;DHT22;1976;51.694;6.256;2022-10-16T17:57:16;18.30;99.90
3923;DHT22;1976;51.694;6.256;2022-10-16T17:59:42;18.30;99.90
3923;DHT22;1976;51.694;6.256;2022-10-16T18:02:11;18.30;99.90
3923;DHT22;1976;51.694;6.256;2022-10-16T18:04:36;18.30;99.90
3923;DHT22;1976;51.694;6.256;2022-10-16T18:07:03;18.40;99.90
3923;DHT22;1976;51.694;6.256;2022-10-16T18:09:29;18.40;99.90
3923;DHT22;1976;51.694;6.256;2022-10-16T18:11:55;18.40;99.90
3923;DHT22;1976;51.694;6.256;2022-10-16T18:14:31;18.30;99.90
3923;DHT22;1976;51.694;6.256;2022-10-16T18:16:57;18.20;99.90
3923;DHT22;1976;51.694;6.256;2022-10-16T18:19:24;18.20;99.90
3923;DHT22;1976;51.694;6.256;2022-10-16T18:21:50;18.10;99.90
3923;DHT22;1976;51.694;6.256;2022-10-16T18:24:17;18.00;99.90